createdAt,value
2023-05-24T00:00:22.437Z,6.40
2023-05-24T00:01:25.454Z,6.73
2023-05-24T00:02:27.805Z,7.64
2023-05-24T00:03:30.259Z,7.50
2023-05-24T00:04:33.682Z,6.73
2023-05-24T00:05:36.146Z,7.10
2023-05-24T00:06:38.815Z,5.73
2023-05-24T00:07:42.206Z,6.70
2023-05-24T00:08:44.640Z,7.10
2023-05-24T00:11:02.486Z,7.50
2023-05-24T00:12:05.661Z,6.36
2023-05-24T00:13:08.152Z,7.00
2023-05-24T00:14:10.264Z,7.60
2023-05-24T00:15:12.377Z,6.10
2023-05-24T00:16:14.957Z,7.80
2023-05-24T00:17:17.345Z,7.60
2023-05-24T00:18:19.547Z,8.00
2023-05-24T00:19:21.841Z,5.60
2023-05-24T00:20:24.826Z,8.00
2023-05-24T00:21:27.727Z,7.18
2023-05-24T00:22:30.087Z,7.18
2023-05-24T00:23:32.420Z,7.90
2023-05-24T00:24:34.592Z,7.10
2023-05-24T00:25:37.282Z,6.80
2023-05-24T00:26:40.131Z,7.00
2023-05-24T00:27:42.394Z,7.64
2023-05-24T00:28:44.500Z,7.40
2023-05-24T00:29:47.176Z,6.80
2023-05-24T00:30:50.014Z,7.60
2023-05-24T00:31:52.966Z,6.20
2023-05-24T00:32:55.182Z,6.55
2023-05-24T00:33:58.978Z,8.80
2023-05-24T00:35:01.269Z,7.10
2023-05-24T00:36:03.851Z,6.90
2023-05-24T00:37:06.767Z,6.70
2023-05-24T00:38:09.276Z,4.27
2023-05-24T00:39:11.552Z,6.70
2023-05-24T00:40:14.721Z,6.70
2023-05-24T00:41:17.107Z,5.40
2023-05-24T00:42:19.444Z,5.70
2023-05-24T00:44:32.176Z,6.40
2023-05-24T00:45:34.431Z,7.00
2023-05-24T00:46:37.795Z,6.40
2023-05-24T00:47:40.431Z,6.90
2023-05-24T00:48:42.888Z,6.80
2023-05-24T00:49:45.254Z,6.40
2023-05-24T00:50:47.799Z,6.91
2023-05-24T00:51:51.512Z,6.20
2023-05-24T00:52:53.987Z,6.00
2023-05-24T00:53:56.545Z,6.00
2023-05-24T00:54:59.612Z,6.36
2023-05-24T00:56:03.269Z,6.10
2023-05-24T00:57:06.207Z,6.60
2023-05-24T00:58:08.930Z,6.27
2023-05-24T00:59:11.261Z,6.70
2023-05-24T01:00:15.801Z,5.20
2023-05-24T01:01:18.212Z,6.27
2023-05-24T01:02:20.382Z,5.90
2023-05-24T01:03:22.992Z,6.10
2023-05-24T01:04:25.885Z,5.64
2023-05-24T01:05:28.308Z,4.80
2023-05-24T01:08:12.286Z,7.00
2023-05-24T01:09:36.856Z,5.00
2023-05-24T01:10:46.631Z,5.10
2023-05-24T01:12:13.184Z,5.10
2023-05-24T01:15:04.240Z,5.10
2023-05-24T01:16:24.295Z,5.70
2023-05-24T01:18:46.133Z,5.60
2023-05-24T01:20:02.784Z,5.20
2023-05-24T01:21:18.414Z,6.40
2023-05-24T01:22:30.833Z,5.60
2023-05-24T01:25:20.767Z,6.30
2023-05-24T01:26:32.262Z,5.10
2023-05-24T01:27:36.455Z,6.70
2023-05-24T01:28:39.089Z,5.10
2023-05-24T01:29:41.693Z,5.70
2023-05-24T01:30:44.931Z,6.30
2023-05-24T01:31:47.297Z,5.30
2023-05-24T01:32:50.061Z,6.10
2023-05-24T01:33:52.241Z,6.00
2023-05-24T01:34:55.354Z,6.30
2023-05-24T01:35:57.653Z,4.70
2023-05-24T01:37:00.094Z,5.70
2023-05-24T01:38:02.257Z,6.10
2023-05-24T01:39:04.716Z,6.00
2023-05-24T01:40:10.296Z,6.60
2023-05-24T01:41:25.022Z,6.50
2023-05-24T01:42:34.379Z,6.00
2023-05-24T01:43:43.080Z,6.60
2023-05-24T01:45:07.377Z,7.30
2023-05-24T01:46:20.873Z,6.30
2023-05-24T01:47:43.594Z,7.00
2023-05-24T01:51:33.544Z,6.60
2023-05-24T01:52:36.735Z,6.70
2023-05-24T01:53:41.633Z,7.50
2023-05-24T01:54:53.577Z,7.00
2023-05-24T01:55:57.602Z,7.00
2023-05-24T01:57:02.569Z,5.50
2023-05-24T01:58:06.364Z,6.30
2023-05-24T01:59:09.110Z,7.20
2023-05-24T02:00:14.619Z,4.00
2023-05-24T02:01:17.093Z,7.60
2023-05-24T02:02:19.526Z,6.70
2023-05-24T02:03:22.697Z,7.10
2023-05-24T02:04:25.514Z,6.45
2023-05-24T02:05:28.356Z,7.70
2023-05-24T02:06:30.916Z,6.20
2023-05-24T02:07:33.203Z,7.00
2023-05-24T02:08:35.521Z,5.90
2023-05-24T02:09:37.611Z,7.00
2023-05-24T02:10:40.461Z,7.20
2023-05-24T02:11:43.108Z,6.30
2023-05-24T02:12:45.438Z,6.40
2023-05-24T02:13:47.755Z,7.30
2023-05-24T02:14:50.172Z,6.30
2023-05-24T02:15:52.258Z,6.00
2023-05-24T02:16:54.602Z,7.90
2023-05-24T02:17:58.132Z,7.30
2023-05-24T02:19:02.645Z,6.90
2023-05-24T02:21:15.880Z,8.90
2023-05-24T02:22:18.789Z,8.18
2023-05-24T02:23:21.138Z,7.20
2023-05-24T02:24:23.537Z,7.20
2023-05-24T02:25:25.851Z,7.20
2023-05-24T02:26:28.420Z,8.70
2023-05-24T02:27:30.910Z,8.60
2023-05-24T02:28:33.340Z,7.60
2023-05-24T02:29:35.574Z,8.00
2023-05-24T02:31:48.007Z,8.00
2023-05-24T02:32:50.420Z,7.36
2023-05-24T02:33:52.685Z,6.30
2023-05-24T02:34:55.389Z,7.50
2023-05-24T02:35:57.535Z,7.10
2023-05-24T02:38:09.066Z,8.20
2023-05-24T02:39:11.700Z,7.70
2023-05-24T02:40:14.485Z,6.91
2023-05-24T02:41:17.006Z,6.60
2023-05-24T02:42:19.327Z,8.50
2023-05-24T02:43:21.828Z,3.90
2023-05-24T02:44:24.510Z,6.70
2023-05-24T02:45:26.806Z,7.30
2023-05-24T02:46:29.607Z,6.09
2023-05-24T02:47:31.957Z,6.36
2023-05-24T02:48:34.393Z,7.70
2023-05-24T02:49:36.731Z,6.60
2023-05-24T02:50:39.040Z,5.40
2023-05-24T02:51:41.229Z,5.70
2023-05-24T02:52:43.346Z,4.40
2023-05-24T02:53:45.924Z,6.20
2023-05-24T02:56:00.251Z,6.90
2023-05-24T02:57:04.910Z,6.30
2023-05-24T02:58:08.208Z,6.60
2023-05-24T02:59:10.818Z,7.70
2023-05-24T03:00:15.020Z,7.00
2023-05-24T03:01:18.616Z,6.60
2023-05-24T03:02:21.053Z,7.09
2023-05-24T03:03:23.407Z,6.90
2023-05-24T03:04:26.076Z,6.50
2023-05-24T03:05:30.067Z,7.00
2023-05-24T03:06:32.472Z,6.60
2023-05-24T03:07:34.842Z,5.60
2023-05-24T03:08:37.133Z,5.70
2023-05-24T03:09:40.508Z,4.10
2023-05-24T03:10:43.020Z,6.40
2023-05-24T03:11:45.860Z,6.40
2023-05-24T03:12:47.972Z,6.30
2023-05-24T03:13:49.946Z,7.10
2023-05-24T03:14:52.379Z,6.00
2023-05-24T03:15:54.816Z,0.20
2023-05-24T03:16:57.231Z,8.00
2023-05-24T03:17:59.705Z,7.50
2023-05-24T03:19:03.352Z,7.30
2023-05-24T03:20:07.450Z,7.90
2023-05-24T03:21:10.257Z,10.00
2023-05-24T03:22:22.329Z,8.50
2023-05-24T03:23:24.727Z,8.60
2023-05-24T03:24:26.903Z,9.10
2023-05-24T03:25:29.188Z,8.70
2023-05-24T03:26:31.690Z,9.00
2023-05-24T03:27:35.362Z,8.10
2023-05-24T03:28:38.352Z,8.80
2023-05-24T03:29:40.467Z,8.70
2023-05-24T03:30:43.766Z,8.80
2023-05-24T03:32:55.653Z,11.00
2023-05-24T03:33:57.878Z,10.30
2023-05-24T03:35:00.633Z,12.20
2023-05-24T03:36:04.736Z,10.60
2023-05-24T03:37:07.641Z,10.70
2023-05-24T03:38:11.139Z,10.00
2023-05-24T03:39:15.556Z,8.70
2023-05-24T03:40:37.729Z,8.90
2023-05-24T03:41:42.678Z,9.20
2023-05-24T03:42:45.960Z,9.10
2023-05-24T03:43:48.383Z,9.20
2023-05-24T03:44:52.664Z,9.30
2023-05-24T03:45:54.885Z,9.00
2023-05-24T03:46:57.354Z,9.40
2023-05-24T03:47:59.727Z,10.60
2023-05-24T03:49:02.340Z,11.40
2023-05-24T03:50:06.945Z,11.40
2023-05-24T03:51:10.117Z,12.30
2023-05-24T03:52:12.421Z,10.70
2023-05-24T03:53:14.967Z,11.00
2023-05-24T03:54:17.336Z,8.50
2023-05-24T03:55:19.767Z,12.00
2023-05-24T03:56:25.821Z,7.20
2023-05-24T03:57:28.144Z,10.20
2023-05-24T03:58:30.493Z,11.30
2023-05-24T03:59:32.682Z,8.70
2023-05-24T04:00:35.014Z,11.20
2023-05-24T04:01:37.812Z,9.90
2023-05-24T04:02:40.316Z,10.10
2023-05-24T04:03:43.038Z,9.10
2023-05-24T04:04:45.583Z,9.70
2023-05-24T04:05:48.991Z,9.60
2023-05-24T04:06:51.593Z,11.10
2023-05-24T04:07:53.676Z,9.00
2023-05-24T04:08:58.504Z,11.40
2023-05-24T04:10:01.889Z,10.60
2023-05-24T04:11:04.347Z,10.50
2023-05-24T04:12:06.582Z,10.50
2023-05-24T04:13:09.018Z,10.00
2023-05-24T04:14:12.062Z,9.60
2023-05-24T04:15:14.384Z,9.60
2023-05-24T04:16:17.028Z,9.90
2023-05-24T04:17:19.451Z,10.70
2023-05-24T04:18:21.979Z,10.60
2023-05-24T04:19:24.984Z,7.70
2023-05-24T04:20:27.650Z,11.30
2023-05-24T04:21:30.324Z,10.80
2023-05-24T04:22:32.609Z,10.80
2023-05-24T04:23:34.799Z,10.00
2023-05-24T04:24:37.496Z,10.40
2023-05-24T04:25:40.079Z,12.10
2023-05-24T04:26:42.719Z,12.20
2023-05-24T04:27:45.136Z,12.50
2023-05-24T04:28:47.364Z,12.40
2023-05-24T04:29:50.057Z,9.10
2023-05-24T04:30:52.313Z,12.00
2023-05-24T04:31:54.832Z,13.00
2023-05-24T04:32:58.931Z,12.70
2023-05-24T04:34:03.528Z,12.80
2023-05-24T04:35:06.617Z,12.36
2023-05-24T04:36:09.836Z,11.90
2023-05-24T04:37:13.180Z,13.20
2023-05-24T04:38:16.089Z,12.90
2023-05-24T04:39:18.500Z,11.64
2023-05-24T04:40:21.032Z,13.60
2023-05-24T04:42:32.639Z,14.50
2023-05-24T04:43:34.777Z,15.10
2023-05-24T04:44:37.317Z,13.60
2023-05-24T04:45:39.527Z,14.80
2023-05-24T04:46:42.405Z,15.60
2023-05-24T04:47:45.311Z,15.09
2023-05-24T04:48:47.751Z,14.00
2023-05-24T04:49:49.984Z,14.90
2023-05-24T04:50:54.692Z,15.70
2023-05-24T04:51:57.628Z,14.30
2023-05-24T04:53:00.032Z,14.64
2023-05-24T04:54:02.343Z,14.20
2023-05-24T04:55:05.287Z,14.40
2023-05-24T04:56:10.535Z,14.40
2023-05-24T04:57:13.007Z,13.60
2023-05-24T04:58:16.056Z,12.40
2023-05-24T04:59:18.323Z,13.60
2023-05-24T05:00:20.649Z,13.10
2023-05-24T05:01:23.025Z,12.50
2023-05-24T05:02:26.317Z,8.70
2023-05-24T05:03:30.005Z,10.80
2023-05-24T05:04:33.362Z,12.50
2023-05-24T05:05:36.254Z,10.00
2023-05-24T05:06:38.902Z,12.80
2023-05-24T05:07:42.515Z,4.30
2023-05-24T05:08:44.755Z,11.40
2023-05-24T05:09:47.008Z,10.60
2023-05-24T05:10:49.895Z,11.60
2023-05-24T05:11:52.333Z,11.64
2023-05-24T05:12:54.644Z,12.60
2023-05-24T05:13:57.374Z,11.90
2023-05-24T05:14:59.935Z,12.00
2023-05-24T05:16:02.614Z,13.70
2023-05-24T05:17:06.012Z,11.30
2023-05-24T05:18:08.430Z,12.00
2023-05-24T05:19:12.787Z,12.00
2023-05-24T05:20:16.737Z,12.20
2023-05-24T05:21:18.982Z,12.70
2023-05-24T05:22:21.190Z,12.60
2023-05-24T05:23:23.393Z,12.40
2023-05-24T05:24:25.823Z,12.20
2023-05-24T05:25:28.144Z,11.60
2023-05-24T05:26:30.859Z,13.40
2023-05-24T05:27:33.335Z,13.91
2023-05-24T05:28:35.609Z,13.30
2023-05-24T05:29:37.936Z,14.80
2023-05-24T05:30:40.351Z,15.00
2023-05-24T05:31:42.659Z,12.40
2023-05-24T05:32:46.008Z,11.80
2023-05-24T05:33:48.808Z,12.60
2023-05-24T05:34:51.022Z,11.60
2023-05-24T05:35:54.910Z,13.50
2023-05-24T05:36:57.948Z,12.80
2023-05-24T05:38:00.803Z,12.18
2023-05-24T05:40:12.468Z,11.80
2023-05-24T05:41:14.875Z,11.40
2023-05-24T05:42:17.111Z,12.70
2023-05-24T05:43:19.816Z,11.30
2023-05-24T05:44:22.027Z,11.40
2023-05-24T05:45:24.318Z,12.00
2023-05-24T05:46:26.766Z,12.00
2023-05-24T05:47:28.973Z,10.90
2023-05-24T05:48:31.484Z,12.90
2023-05-24T05:49:33.676Z,10.70
2023-05-24T05:50:35.992Z,11.70
2023-05-24T05:51:38.799Z,10.80
2023-05-24T05:52:42.089Z,10.50
2023-05-24T05:53:44.655Z,10.10
2023-05-24T05:54:46.687Z,10.00
2023-05-24T05:55:49.239Z,9.40
2023-05-24T05:56:51.487Z,11.30
2023-05-24T05:57:53.774Z,9.80
2023-05-24T05:58:56.100Z,10.30
2023-05-24T05:59:58.283Z,10.40
2023-05-24T06:01:00.807Z,10.50
2023-05-24T06:02:04.129Z,11.50
2023-05-24T06:03:07.865Z,10.40
2023-05-24T06:04:10.681Z,10.60
2023-05-24T06:05:14.067Z,11.20
2023-05-24T06:06:17.080Z,8.10
2023-05-24T06:07:19.407Z,8.40
2023-05-24T06:08:21.688Z,10.00
2023-05-24T06:09:24.268Z,10.20
2023-05-24T06:10:26.658Z,10.50
2023-05-24T06:11:29.462Z,8.10
2023-05-24T06:12:31.944Z,8.91
2023-05-24T06:13:34.086Z,8.80
2023-05-24T06:14:36.690Z,8.90
2023-05-24T06:15:39.502Z,9.70
2023-05-24T06:16:41.793Z,8.60
2023-05-24T06:17:44.215Z,8.50
2023-05-24T06:18:57.267Z,8.20
2023-05-24T06:19:51.537Z,8.50
2023-05-24T06:20:54.349Z,7.00
2023-05-24T06:21:57.877Z,8.00
2023-05-24T06:23:01.315Z,8.00
2023-05-24T06:24:03.848Z,7.50
2023-05-24T06:25:07.118Z,4.20
2023-05-24T06:26:10.149Z,8.00
2023-05-24T06:27:13.876Z,7.60
2023-05-24T06:28:19.026Z,7.10
2023-05-24T06:29:21.317Z,6.40
2023-05-24T06:30:25.776Z,6.40
2023-05-24T06:31:27.886Z,7.40
2023-05-24T06:32:33.174Z,6.20
2023-05-24T06:33:38.396Z,6.40
2023-05-24T06:34:45.444Z,6.80
2023-05-24T06:35:48.338Z,6.30
2023-05-24T06:36:52.207Z,7.18
2023-05-24T06:37:55.640Z,7.20
2023-05-24T06:38:57.863Z,6.70
2023-05-24T06:40:00.320Z,6.80
2023-05-24T06:42:11.981Z,7.20
2023-05-24T06:43:18.456Z,6.00
2023-05-24T06:44:26.567Z,5.82
2023-05-24T06:45:30.585Z,5.20
2023-05-24T06:46:34.487Z,5.30
2023-05-24T06:47:40.252Z,5.73
2023-05-24T06:48:42.890Z,5.60
2023-05-24T06:49:47.241Z,5.45
2023-05-24T06:50:50.607Z,5.40
2023-05-24T06:51:52.890Z,5.55
2023-05-24T06:52:55.741Z,6.70
2023-05-24T06:54:04.429Z,3.45
2023-05-24T06:55:11.024Z,6.10
2023-05-24T06:56:14.252Z,4.70
2023-05-24T06:57:18.797Z,5.50
2023-05-24T06:58:24.170Z,6.00
2023-05-24T06:59:27.829Z,5.30
2023-05-24T07:00:30.230Z,4.90
2023-05-24T07:01:36.281Z,5.30
2023-05-24T07:02:39.140Z,5.00
2023-05-24T07:04:50.774Z,6.20
2023-05-24T07:05:53.020Z,6.00
2023-05-24T07:06:55.451Z,5.50
2023-05-24T07:07:57.576Z,4.50
2023-05-24T07:09:01.580Z,5.20
2023-05-24T07:10:08.812Z,4.70
2023-05-24T07:11:11.723Z,4.10
2023-05-24T07:12:16.943Z,4.40
2023-05-24T07:13:22.208Z,4.40
2023-05-24T07:14:25.967Z,2.10
2023-05-24T07:15:28.377Z,4.90
2023-05-24T07:16:32.394Z,4.40
2023-05-24T07:17:34.779Z,5.10
2023-05-24T07:18:37.692Z,5.20
2023-05-24T07:19:40.517Z,4.64
2023-05-24T07:20:43.809Z,4.45
2023-05-24T07:21:46.603Z,3.60
2023-05-24T07:22:53.408Z,4.00
2023-05-24T07:23:56.856Z,3.50
2023-05-24T07:25:00.106Z,4.10
2023-05-24T07:26:04.217Z,5.20
2023-05-24T07:27:06.451Z,3.80
2023-05-24T07:28:08.763Z,3.80
2023-05-24T07:29:10.960Z,3.70
2023-05-24T07:30:24.053Z,3.42
2023-05-24T07:31:18.558Z,4.30
2023-05-24T07:32:21.008Z,4.50
2023-05-24T07:33:23.088Z,3.60
2023-05-24T07:34:26.278Z,4.30
2023-05-24T07:35:28.721Z,4.50
2023-05-24T07:36:34.364Z,5.00
2023-05-24T07:37:35.719Z,4.50
2023-05-24T07:38:37.819Z,4.90
2023-05-24T07:39:40.109Z,4.30
2023-05-24T07:40:42.860Z,4.20
2023-05-24T07:41:45.499Z,1.80
2023-05-24T07:42:47.846Z,4.20
2023-05-24T07:43:50.780Z,3.60
2023-05-24T07:44:53.847Z,4.20
2023-05-24T07:46:03.162Z,5.00
2023-05-24T07:47:08.160Z,3.90
2023-05-24T07:48:12.214Z,2.90
2023-05-24T07:49:15.427Z,3.55
2023-05-24T07:50:18.736Z,4.40
2023-05-24T07:51:21.070Z,4.50
2023-05-24T07:52:23.828Z,3.90
2023-05-24T07:53:27.221Z,4.18
2023-05-24T07:54:29.682Z,3.70
2023-05-24T07:55:32.037Z,3.80
2023-05-24T07:56:34.505Z,4.20
2023-05-24T07:57:40.867Z,5.50
2023-05-24T07:58:47.375Z,4.20
2023-05-24T07:59:53.129Z,5.00
2023-05-24T08:00:55.373Z,4.80
2023-05-24T08:01:57.633Z,4.20
2023-05-24T08:02:59.891Z,4.30
2023-05-24T08:04:02.937Z,4.90
2023-05-24T08:05:07.169Z,3.90
2023-05-24T08:06:12.135Z,4.10
2023-05-24T08:07:14.648Z,3.40
2023-05-24T08:08:17.164Z,3.80
2023-05-24T08:09:22.089Z,4.20
2023-05-24T08:10:24.823Z,4.40
2023-05-24T08:11:28.092Z,0.00
2023-05-24T08:12:32.492Z,3.20
2023-05-24T08:13:35.020Z,3.90
2023-05-24T08:14:41.356Z,3.50
2023-05-24T08:15:44.822Z,4.00
2023-05-24T08:16:51.191Z,3.80
2023-05-24T08:17:58.140Z,3.80
2023-05-24T08:20:20.772Z,4.90
2023-05-24T08:21:24.521Z,4.50
2023-05-24T08:22:27.249Z,4.90
2023-05-24T08:23:29.994Z,3.80
2023-05-24T08:24:33.329Z,3.91
2023-05-24T08:25:38.224Z,3.30
2023-05-24T08:26:42.933Z,3.50
2023-05-24T08:27:49.805Z,3.90
2023-05-24T08:28:53.304Z,3.40
2023-05-24T08:29:57.141Z,3.90
2023-05-24T08:30:59.808Z,4.50
2023-05-24T08:33:12.840Z,3.20
2023-05-24T08:34:15.337Z,2.55
2023-05-24T08:35:22.083Z,3.10
2023-05-24T08:36:28.586Z,4.10
2023-05-24T08:38:42.623Z,3.20
2023-05-24T08:39:47.079Z,4.00
2023-05-24T08:40:51.762Z,4.20
2023-05-24T08:42:08.798Z,3.50
2023-05-24T08:43:01.560Z,4.00
2023-05-24T08:44:07.037Z,3.30
2023-05-24T08:46:23.631Z,3.00
2023-05-24T08:47:27.755Z,4.00
2023-05-24T08:48:31.171Z,3.50
2023-05-24T08:50:53.089Z,4.50
2023-05-24T08:53:09.851Z,4.00
2023-05-24T08:54:12.286Z,3.80
2023-05-24T08:55:14.818Z,3.40
2023-05-24T08:56:18.086Z,3.80
2023-05-24T08:57:22.341Z,3.70
2023-05-24T08:58:25.254Z,3.50
2023-05-24T08:59:28.685Z,3.50
2023-05-24T09:00:33.232Z,3.30
2023-05-24T09:01:37.313Z,2.60
2023-05-24T09:02:41.790Z,2.70
2023-05-24T09:03:46.410Z,2.60
2023-05-24T09:04:50.268Z,3.60
2023-05-24T09:05:52.583Z,2.45
2023-05-24T09:06:57.318Z,4.00
2023-05-24T09:08:00.049Z,1.60
2023-05-24T09:09:03.367Z,2.90
2023-05-24T09:11:17.888Z,3.40
2023-05-24T09:12:35.596Z,3.30
2023-05-24T09:13:26.853Z,3.82
2023-05-24T09:14:29.298Z,3.91
2023-05-24T09:15:32.644Z,3.50
2023-05-24T09:16:37.365Z,3.50
2023-05-24T09:17:42.168Z,3.90
2023-05-24T09:18:46.997Z,4.20
2023-05-24T09:19:53.660Z,3.70
2023-05-24T09:20:57.791Z,4.30
2023-05-24T09:22:02.160Z,4.00
2023-05-24T09:23:07.359Z,3.90
2023-05-24T09:24:12.192Z,3.90
2023-05-24T09:25:14.452Z,3.90
2023-05-24T09:26:20.565Z,3.73
2023-05-24T09:27:24.991Z,4.60
2023-05-24T09:28:32.618Z,3.30
2023-05-24T09:29:42.232Z,3.40
2023-05-24T09:30:58.268Z,3.30
2023-05-24T09:32:02.420Z,3.40
2023-05-24T09:33:12.489Z,3.00
2023-05-24T09:34:16.904Z,4.10
2023-05-24T09:35:19.705Z,3.10
2023-05-24T09:36:25.268Z,2.73
2023-05-24T09:37:32.304Z,3.10
2023-05-24T09:38:33.062Z,3.20
2023-05-24T09:39:36.789Z,3.50
2023-05-24T09:40:39.323Z,2.80
2023-05-24T09:41:43.197Z,4.00
2023-05-24T09:42:45.983Z,3.00
2023-05-24T09:43:49.294Z,3.55
2023-05-24T09:45:03.798Z,3.60
2023-05-24T09:46:08.486Z,3.80
2023-05-24T09:47:26.721Z,4.10
2023-05-24T09:48:32.579Z,3.10
2023-05-24T09:49:38.177Z,3.00
2023-05-24T09:50:40.915Z,3.90
2023-05-24T09:51:43.499Z,3.90
2023-05-24T09:52:45.797Z,3.40
2023-05-24T09:53:48.318Z,3.70
2023-05-24T09:54:51.500Z,3.20
2023-05-24T09:55:54.701Z,3.50
2023-05-24T09:57:03.403Z,3.00
2023-05-24T09:58:07.861Z,3.60
2023-05-24T09:59:10.193Z,3.50
2023-05-24T10:00:16.074Z,3.60
2023-05-24T10:01:22.153Z,1.70
2023-05-24T10:02:25.673Z,3.50
2023-05-24T10:03:29.061Z,2.90
2023-05-24T10:04:34.358Z,3.00
2023-05-24T10:05:38.240Z,4.40
2023-05-24T10:06:42.697Z,3.50
2023-05-24T10:07:45.994Z,3.30
2023-05-24T10:08:48.176Z,3.50
2023-05-24T10:09:50.652Z,4.10
2023-05-24T10:10:55.275Z,4.20
2023-05-24T10:11:57.622Z,4.60
2023-05-24T10:13:01.248Z,3.50
2023-05-24T10:14:09.087Z,3.70
2023-05-24T10:15:11.780Z,3.10
2023-05-24T10:16:15.220Z,3.82
2023-05-24T10:17:17.472Z,4.20
2023-05-24T10:18:20.911Z,3.80
2023-05-24T10:19:27.595Z,4.10
2023-05-24T10:20:31.324Z,3.20
2023-05-24T10:21:35.842Z,4.00
2023-05-24T10:23:55.093Z,3.20
2023-05-24T10:24:57.949Z,4.20
2023-05-24T10:26:08.004Z,3.18
2023-05-24T10:27:13.930Z,4.20
2023-05-24T10:28:17.445Z,3.70
2023-05-24T10:29:24.444Z,2.80
2023-05-24T10:30:34.612Z,3.60
2023-05-24T10:31:39.174Z,3.20
2023-05-24T10:32:44.449Z,3.20
2023-05-24T10:33:47.561Z,3.80
2023-05-24T10:34:50.635Z,3.10
2023-05-24T10:35:53.817Z,3.30
2023-05-24T10:38:14.572Z,4.40
2023-05-24T10:39:21.259Z,4.10
2023-05-24T10:40:24.027Z,3.40
2023-05-24T10:41:28.955Z,4.20
2023-05-24T10:42:31.421Z,3.10
2023-05-24T10:43:37.988Z,4.10
2023-05-24T10:44:42.587Z,4.60
2023-05-24T10:45:50.868Z,4.20
2023-05-24T10:48:37.241Z,4.70
2023-05-24T10:49:50.636Z,3.60
2023-05-24T10:50:53.711Z,3.40
2023-05-24T10:53:19.049Z,4.70
2023-05-24T10:54:24.513Z,4.50
2023-05-24T10:55:27.716Z,1.10
2023-05-24T10:56:29.960Z,4.80
2023-05-24T10:57:32.348Z,4.00
2023-05-24T10:58:43.913Z,3.50
2023-05-24T10:59:46.201Z,3.20
2023-05-24T11:00:51.889Z,3.90
2023-05-24T11:01:58.522Z,4.50
2023-05-24T11:03:03.947Z,4.60
2023-05-24T11:04:09.850Z,4.40
2023-05-24T11:05:12.240Z,4.00
2023-05-24T11:06:15.700Z,3.70
2023-05-24T11:07:18.627Z,4.10
2023-05-24T11:08:32.296Z,4.40
2023-05-24T11:09:35.859Z,3.60
2023-05-24T11:10:39.319Z,3.70
2023-05-24T11:11:44.434Z,3.60
2023-05-24T11:12:46.856Z,4.90
2023-05-24T11:13:53.586Z,3.70
2023-05-24T11:14:55.854Z,4.30
2023-05-24T11:15:58.079Z,4.00
2023-05-24T11:17:00.575Z,3.70
2023-05-24T11:18:12.622Z,3.80
2023-05-24T11:19:22.920Z,4.40
2023-05-24T11:20:25.802Z,5.10
2023-05-24T11:21:28.179Z,4.55
2023-05-24T11:22:32.742Z,4.50
2023-05-24T11:23:38.366Z,4.10
2023-05-24T11:24:41.724Z,4.80
2023-05-24T11:25:48.692Z,4.60
2023-05-24T11:26:58.092Z,4.70
2023-05-24T11:28:00.795Z,4.30
2023-05-24T11:29:05.338Z,4.45
2023-05-24T11:30:10.786Z,4.30
2023-05-24T11:31:13.151Z,4.40
2023-05-24T11:33:33.660Z,5.20
2023-05-24T11:34:35.864Z,0.20
2023-05-24T11:35:38.100Z,5.00
2023-05-24T11:36:41.530Z,4.60
2023-05-24T11:37:46.710Z,3.70
2023-05-24T11:38:48.764Z,2.80
2023-05-24T11:39:51.348Z,4.27
2023-05-24T11:40:54.310Z,4.80
2023-05-24T11:41:56.807Z,3.64
2023-05-24T11:42:59.087Z,4.00
2023-05-24T11:44:01.240Z,5.50
2023-05-24T11:45:05.369Z,3.30
2023-05-24T11:46:08.597Z,4.50
2023-05-24T11:47:12.844Z,4.55
2023-05-24T11:48:15.377Z,4.30
2023-05-24T11:49:19.556Z,4.64
2023-05-24T11:50:45.976Z,3.80
2023-05-24T11:51:31.559Z,3.70
2023-05-24T11:52:41.861Z,4.30
2023-05-24T11:53:46.398Z,4.20
2023-05-24T11:54:49.644Z,3.80
2023-05-24T11:55:56.456Z,5.00
2023-05-24T11:56:59.263Z,4.80
2023-05-24T11:58:04.177Z,4.60
2023-05-24T11:59:18.417Z,4.90
2023-05-24T12:00:25.804Z,4.60
2023-05-24T12:01:28.954Z,3.40
2023-05-24T12:02:33.044Z,3.80
2023-05-24T12:03:36.696Z,3.60
2023-05-24T12:04:39.258Z,3.50
2023-05-24T12:05:41.764Z,3.70
2023-05-24T12:09:14.433Z,4.90
2023-05-24T12:10:17.392Z,4.40
2023-05-24T12:11:21.817Z,4.10
2023-05-24T12:12:30.682Z,4.50
2023-05-24T12:13:29.892Z,4.30
2023-05-24T12:14:34.816Z,4.10
2023-05-24T12:15:37.035Z,4.00
2023-05-24T12:16:45.091Z,4.40
2023-05-24T12:17:48.131Z,3.90
2023-05-24T12:19:02.984Z,3.70
2023-05-24T12:19:56.385Z,3.50
2023-05-24T12:20:59.050Z,4.30
2023-05-24T12:23:15.864Z,3.90
2023-05-24T12:24:18.130Z,4.00
2023-05-24T12:25:22.361Z,3.70
2023-05-24T12:26:26.114Z,3.10
2023-05-24T12:27:28.825Z,3.50
2023-05-24T12:28:35.352Z,3.20
2023-05-24T12:29:46.757Z,3.70
2023-05-24T12:30:49.582Z,4.90
2023-05-24T12:31:52.321Z,3.80
2023-05-24T12:32:55.371Z,5.10
2023-05-24T12:33:57.697Z,5.30
2023-05-24T12:35:00.023Z,6.10
2023-05-24T12:36:02.333Z,7.10
2023-05-24T12:37:04.672Z,7.10
2023-05-24T12:38:09.011Z,7.30
2023-05-24T12:40:34.252Z,10.20
2023-05-24T12:41:37.213Z,9.70
2023-05-24T12:42:39.642Z,9.70
2023-05-24T12:43:42.163Z,10.00
2023-05-24T12:44:44.959Z,10.70
2023-05-24T12:45:47.430Z,10.45
2023-05-24T12:46:49.828Z,9.30
2023-05-24T12:47:54.425Z,9.00
2023-05-24T12:48:57.746Z,10.00
2023-05-24T12:50:00.168Z,9.60
2023-05-24T12:51:02.523Z,10.00
2023-05-24T12:52:05.015Z,8.40
2023-05-24T12:53:08.477Z,9.90
2023-05-24T12:54:10.728Z,9.40
2023-05-24T12:55:16.161Z,7.40
2023-05-24T12:56:19.039Z,5.20
2023-05-24T12:57:23.454Z,7.30
2023-05-24T12:58:26.190Z,3.40
2023-05-24T12:59:29.649Z,8.10
2023-05-24T13:00:32.044Z,8.20
2023-05-24T13:01:34.410Z,9.20
2023-05-24T13:02:39.496Z,8.60
2023-05-24T13:03:41.536Z,8.30
2023-05-24T13:05:58.025Z,9.00
2023-05-24T13:07:01.492Z,8.40
2023-05-24T13:08:04.393Z,8.30
2023-05-24T13:10:30.135Z,8.80
2023-05-24T13:11:32.238Z,7.60
2023-05-24T13:12:34.477Z,7.70
2023-05-24T13:13:37.083Z,7.70
2023-05-24T13:14:39.312Z,6.60
2023-05-24T13:15:44.085Z,7.20
2023-05-24T13:16:47.394Z,7.90
2023-05-24T13:17:49.671Z,7.40
2023-05-24T13:18:53.254Z,6.80
2023-05-24T13:19:55.669Z,7.20
2023-05-24T13:20:58.032Z,5.80
2023-05-24T13:22:01.403Z,6.10
2023-05-24T13:23:03.879Z,5.50
2023-05-24T13:24:07.805Z,6.00
2023-05-24T13:25:10.136Z,6.50
2023-05-24T13:26:12.882Z,5.10
2023-05-24T13:27:15.272Z,6.50
2023-05-24T13:28:17.366Z,6.00
2023-05-24T13:29:34.079Z,6.00
2023-05-24T13:30:24.286Z,5.90
2023-05-24T13:31:26.633Z,6.30
2023-05-24T13:32:28.911Z,5.80
2023-05-24T13:33:34.035Z,4.90
2023-05-24T13:34:36.912Z,5.10
2023-05-24T13:35:39.646Z,5.40
2023-05-24T13:36:42.578Z,4.70
2023-05-24T13:37:44.765Z,4.70
2023-05-24T13:38:46.820Z,5.89
2023-05-24T13:39:51.330Z,5.18
2023-05-24T13:40:55.211Z,5.20
2023-05-24T13:41:58.625Z,4.90
2023-05-24T13:43:00.990Z,5.30
2023-05-24T13:44:03.108Z,4.70
2023-05-24T13:45:07.792Z,4.82
2023-05-24T13:46:12.427Z,5.20
2023-05-24T13:47:23.720Z,5.60
2023-05-24T13:48:46.673Z,5.10
2023-05-24T13:49:58.653Z,5.30
2023-05-24T13:51:01.198Z,5.20
2023-05-24T13:52:03.683Z,4.80
2023-05-24T13:53:08.475Z,4.90
2023-05-24T13:54:10.954Z,5.80
2023-05-24T13:55:13.713Z,4.70
2023-05-24T13:56:22.006Z,5.90
2023-05-24T13:57:27.747Z,3.90
2023-05-24T13:58:28.670Z,4.50
2023-05-24T13:59:30.898Z,5.20
2023-05-24T14:00:33.677Z,4.20
2023-05-24T14:03:19.590Z,4.90
2023-05-24T14:04:29.764Z,4.50
2023-05-24T14:05:32.321Z,3.70
2023-05-24T14:06:38.595Z,4.10
2023-05-24T14:07:40.950Z,3.70
2023-05-24T14:08:45.426Z,4.00
2023-05-24T14:09:48.380Z,3.90
2023-05-24T14:10:53.231Z,3.90
2023-05-24T14:11:57.396Z,4.00
2023-05-24T14:13:17.937Z,3.70
2023-05-24T14:15:09.621Z,4.30
2023-05-24T14:16:16.270Z,4.30
2023-05-24T14:17:23.534Z,3.80
2023-05-24T14:18:28.988Z,3.30
2023-05-24T14:19:34.273Z,3.50
2023-05-24T14:20:40.824Z,3.90
2023-05-24T14:21:43.351Z,3.80
2023-05-24T14:22:48.085Z,3.55
2023-05-24T14:23:51.684Z,3.90
2023-05-24T14:24:57.799Z,3.20
2023-05-24T14:27:17.672Z,3.70
2023-05-24T14:28:22.971Z,3.70
2023-05-24T14:29:25.463Z,4.40
2023-05-24T14:31:47.341Z,4.00
2023-05-24T14:32:49.752Z,5.10
2023-05-24T14:33:52.540Z,3.80
2023-05-24T14:34:55.204Z,3.90
2023-05-24T14:35:57.486Z,4.40
2023-05-24T14:37:02.330Z,3.70
2023-05-24T14:38:12.643Z,3.80
2023-05-24T14:39:18.047Z,3.80
2023-05-24T14:40:21.617Z,4.73
2023-05-24T14:41:24.484Z,3.90
2023-05-24T14:42:26.894Z,3.73
2023-05-24T14:43:33.969Z,3.80
2023-05-24T14:44:38.365Z,3.00
2023-05-24T14:45:43.751Z,3.50
2023-05-24T14:46:51.271Z,3.70
2023-05-24T14:47:55.776Z,3.30
2023-05-24T14:48:59.987Z,3.70
2023-05-24T14:50:02.617Z,4.10
2023-05-24T14:51:05.003Z,3.60
2023-05-24T14:52:07.324Z,4.00
2023-05-24T14:53:13.714Z,3.40
2023-05-24T14:54:18.719Z,4.30
2023-05-24T14:55:21.092Z,3.50
2023-05-24T14:56:24.569Z,4.90